createdAt,value
2023-05-16T00:00:48.395Z,1.70
2023-05-16T00:03:15.573Z,1.60
2023-05-16T00:05:42.718Z,1.23
2023-05-16T00:08:09.725Z,1.33
2023-05-16T00:10:37.590Z,3.13
2023-05-16T00:13:04.889Z,2.70
2023-05-16T00:15:31.858Z,1.95
2023-05-16T00:17:59.598Z,2.20
2023-05-16T00:20:28.276Z,2.40
2023-05-16T00:22:56.002Z,2.35
2023-05-16T00:25:23.680Z,1.77
2023-05-16T00:27:50.823Z,1.73
2023-05-16T00:30:18.014Z,1.60
2023-05-16T00:32:45.195Z,1.90
2023-05-16T00:35:12.731Z,2.33
2023-05-16T00:37:40.245Z,2.75
2023-05-16T00:40:08.142Z,2.15
2023-05-16T00:42:35.247Z,2.00
2023-05-16T00:45:02.394Z,1.10
2023-05-16T00:47:29.577Z,1.30
2023-05-16T00:49:57.107Z,2.38
2023-05-16T00:52:24.807Z,1.92
2023-05-16T00:54:52.423Z,1.60
2023-05-16T00:57:19.576Z,1.70
2023-05-16T00:59:47.387Z,1.90
2023-05-16T01:02:14.758Z,1.92
2023-05-16T01:04:43.527Z,2.65
2023-05-16T01:07:10.576Z,2.67
2023-05-16T01:09:37.974Z,1.50
2023-05-16T01:12:19.973Z,1.48
2023-05-16T01:14:55.383Z,2.65
2023-05-16T01:17:59.774Z,1.58
2023-05-16T01:20:48.470Z,1.05
2023-05-16T01:23:37.132Z,16.27
2023-05-16T01:26:23.325Z,6.30
2023-05-16T01:28:52.412Z,2.20
2023-05-16T01:31:20.529Z,2.47
2023-05-16T01:33:48.315Z,1.25
2023-05-16T01:36:40.223Z,0.85
2023-05-16T01:39:27.372Z,0.95
2023-05-16T01:42:15.080Z,1.23
2023-05-16T01:44:52.893Z,1.67
2023-05-16T01:47:23.542Z,1.05
2023-05-16T01:50:20.898Z,2.08
2023-05-16T01:52:59.250Z,2.00
2023-05-16T01:55:52.218Z,1.58
2023-05-16T01:58:26.332Z,1.23
2023-05-16T02:00:54.266Z,1.52
2023-05-16T02:03:21.316Z,1.85
2023-05-16T02:05:48.452Z,1.80
2023-05-16T02:08:15.593Z,2.47
2023-05-16T02:10:42.695Z,2.20
2023-05-16T02:13:10.167Z,2.20
2023-05-16T02:15:37.296Z,2.13
2023-05-16T02:18:04.487Z,3.33
2023-05-16T02:20:31.777Z,4.28
2023-05-16T02:22:59.159Z,3.97
2023-05-16T02:25:26.655Z,3.20
2023-05-16T02:27:53.774Z,4.13
2023-05-16T02:30:21.013Z,4.22
2023-05-16T02:32:49.288Z,3.60
2023-05-16T02:35:16.378Z,4.40
2023-05-16T02:37:43.652Z,5.82
2023-05-16T02:40:11.117Z,4.97
2023-05-16T02:42:38.186Z,4.32
2023-05-16T02:45:05.916Z,5.82
2023-05-16T02:47:32.995Z,5.57
2023-05-16T02:50:00.108Z,5.57
2023-05-16T02:52:27.166Z,4.22
2023-05-16T02:57:24.173Z,3.95
2023-05-16T02:59:51.255Z,4.32
2023-05-16T03:02:18.392Z,5.53
2023-05-16T03:04:45.515Z,4.30
2023-05-16T03:07:12.552Z,5.70
2023-05-16T03:09:39.632Z,4.93
2023-05-16T03:12:07.158Z,3.40
2023-05-16T03:14:34.456Z,5.05
2023-05-16T03:17:01.445Z,3.60
2023-05-16T03:19:28.460Z,3.50
2023-05-16T03:21:55.704Z,2.78
2023-05-16T03:24:23.221Z,3.53
2023-05-16T03:26:50.532Z,2.20
2023-05-16T03:29:17.596Z,2.55
2023-05-16T03:31:44.673Z,2.72
2023-05-16T03:34:11.816Z,2.58
2023-05-16T03:36:41.462Z,2.83
2023-05-16T03:39:08.817Z,2.67
2023-05-16T03:41:35.948Z,4.28
2023-05-16T03:44:03.001Z,3.25
2023-05-16T03:46:30.176Z,5.00
2023-05-16T03:48:57.229Z,3.95
2023-05-16T03:51:24.573Z,4.88
2023-05-16T03:53:51.690Z,4.63
2023-05-16T03:56:18.834Z,4.53
2023-05-16T03:58:45.997Z,4.88
2023-05-16T04:01:12.974Z,6.25
2023-05-16T04:03:40.145Z,4.35
2023-05-16T04:06:08.065Z,4.75
2023-05-16T04:08:35.228Z,4.32
2023-05-16T04:11:02.407Z,3.75
2023-05-16T04:13:29.584Z,4.60
2023-05-16T04:15:56.714Z,4.40
2023-05-16T04:18:23.792Z,4.25
2023-05-16T04:20:50.792Z,5.20
2023-05-16T04:23:17.927Z,5.90
2023-05-16T04:25:45.092Z,5.97
2023-05-16T04:28:12.614Z,6.35
2023-05-16T04:30:39.771Z,7.03
2023-05-16T04:33:07.468Z,5.32
2023-05-16T04:35:35.628Z,5.53
2023-05-16T04:38:03.144Z,4.93
2023-05-16T04:40:30.701Z,5.07
2023-05-16T04:42:58.988Z,5.38
2023-05-16T04:45:26.927Z,6.28
2023-05-16T04:47:54.538Z,6.53
2023-05-16T04:50:21.970Z,5.60
2023-05-16T04:52:49.157Z,5.75
2023-05-16T04:55:16.605Z,5.63
2023-05-16T04:57:43.776Z,6.75
2023-05-16T05:00:12.602Z,8.73
2023-05-16T05:02:40.170Z,7.28
2023-05-16T05:05:08.855Z,7.70
2023-05-16T05:07:36.211Z,6.97
2023-05-16T05:10:03.566Z,6.70
2023-05-16T05:12:30.993Z,8.13
2023-05-16T05:14:58.224Z,8.23
2023-05-16T05:17:25.628Z,8.48
2023-05-16T05:19:52.727Z,7.13
2023-05-16T05:22:19.776Z,9.63
2023-05-16T05:24:47.065Z,9.00
2023-05-16T05:27:14.296Z,10.65
2023-05-16T05:29:41.537Z,11.20
2023-05-16T05:32:08.749Z,8.95
2023-05-16T05:34:36.015Z,9.95
2023-05-16T05:37:03.077Z,11.57
2023-05-16T05:39:30.099Z,11.57
2023-05-16T05:41:57.273Z,27.65
2023-05-16T05:44:24.405Z,33.00
2023-05-16T05:46:51.533Z,32.08
2023-05-16T05:49:18.622Z,35.60
2023-05-16T05:51:45.825Z,42.60
2023-05-16T05:54:13.551Z,28.02
2023-05-16T05:56:40.630Z,28.88
2023-05-16T05:59:07.727Z,24.25
2023-05-16T06:01:34.821Z,23.05
2023-05-16T06:04:02.642Z,18.50
2023-05-16T06:06:29.855Z,19.13
2023-05-16T06:08:56.981Z,14.80
2023-05-16T06:11:25.395Z,14.85
2023-05-16T06:13:52.855Z,13.73
2023-05-16T06:16:20.447Z,13.25
2023-05-16T06:18:49.071Z,14.13
2023-05-16T06:21:16.161Z,15.15
2023-05-16T06:23:43.296Z,12.70
2023-05-16T06:26:10.401Z,11.63
2023-05-16T06:28:37.391Z,12.98
2023-05-16T06:31:04.625Z,12.43
2023-05-16T06:33:33.924Z,11.93
2023-05-16T06:36:01.023Z,14.68
2023-05-16T06:38:28.035Z,12.45
2023-05-16T06:40:55.020Z,11.75
2023-05-16T06:43:22.259Z,11.10
2023-05-16T06:45:49.680Z,16.13
2023-05-16T06:48:19.295Z,9.63
2023-05-16T06:50:52.091Z,13.70
2023-05-16T06:55:47.722Z,13.90
2023-05-16T06:58:15.366Z,14.63
2023-05-16T07:00:42.502Z,14.85
2023-05-16T07:03:09.783Z,17.67
2023-05-16T07:05:37.018Z,23.92
2023-05-16T07:08:06.274Z,22.20
2023-05-16T07:10:34.964Z,22.63
2023-05-16T07:13:02.469Z,24.92
2023-05-16T07:15:29.830Z,26.40
2023-05-16T07:17:57.486Z,24.33
2023-05-16T07:20:24.908Z,26.95
2023-05-16T07:22:52.059Z,25.55
2023-05-16T07:25:19.248Z,30.02
2023-05-16T07:27:46.343Z,35.03
2023-05-16T07:30:14.401Z,33.13
2023-05-16T07:32:42.038Z,32.70
2023-05-16T07:35:09.769Z,31.27
2023-05-16T07:37:37.239Z,33.55
2023-05-16T07:40:04.922Z,34.22
2023-05-16T07:42:32.380Z,34.28
2023-05-16T07:44:59.624Z,33.53
2023-05-16T07:47:27.221Z,34.60
2023-05-16T07:49:54.378Z,29.42
2023-05-16T07:52:21.600Z,32.78
2023-05-16T07:54:48.718Z,33.10
2023-05-16T07:57:16.398Z,32.95
2023-05-16T07:59:44.565Z,28.70
2023-05-16T08:02:12.173Z,33.90
2023-05-16T08:04:39.725Z,32.22
2023-05-16T08:07:06.828Z,37.15
2023-05-16T08:09:34.074Z,31.13
2023-05-16T08:12:03.876Z,29.80
2023-05-16T08:14:34.437Z,27.52
2023-05-16T08:17:01.655Z,25.45
2023-05-16T08:19:29.774Z,24.30
2023-05-16T08:21:57.067Z,24.38
2023-05-16T08:24:25.005Z,24.17
2023-05-16T08:26:52.667Z,24.33
2023-05-16T08:29:19.931Z,24.80
2023-05-16T08:31:47.595Z,23.48
2023-05-16T08:34:15.119Z,20.95
2023-05-16T08:36:42.394Z,23.90
2023-05-16T08:39:11.872Z,21.27
2023-05-16T08:41:39.651Z,25.42
2023-05-16T08:44:07.017Z,25.17
2023-05-16T08:46:37.336Z,20.42
2023-05-16T08:49:08.159Z,19.45
2023-05-16T08:51:37.839Z,21.42
2023-05-16T08:54:10.787Z,20.27
2023-05-16T08:56:38.989Z,19.02
2023-05-16T08:59:07.008Z,16.40
2023-05-16T09:01:34.829Z,15.25
2023-05-16T09:04:04.030Z,19.55
2023-05-16T09:06:31.632Z,19.73
2023-05-16T09:08:59.072Z,17.45
2023-05-16T09:11:26.277Z,18.95
2023-05-16T09:13:53.530Z,20.05
2023-05-16T09:16:21.617Z,21.73
2023-05-16T09:18:58.044Z,22.83
2023-05-16T09:21:32.204Z,21.50
2023-05-16T09:24:07.170Z,21.67
2023-05-16T09:26:39.528Z,22.80
2023-05-16T09:29:13.628Z,24.15
2023-05-16T09:31:41.255Z,22.30
2023-05-16T09:34:11.445Z,20.17
2023-05-16T09:36:39.451Z,22.60
2023-05-16T09:39:08.195Z,18.85
2023-05-16T09:41:36.686Z,21.63
2023-05-16T09:44:07.237Z,19.08
2023-05-16T09:46:38.932Z,20.38
2023-05-16T09:49:06.592Z,19.87
2023-05-16T09:51:34.856Z,17.67
2023-05-16T09:54:02.030Z,17.83
2023-05-16T09:56:30.273Z,18.23
2023-05-16T09:58:57.658Z,17.10
2023-05-16T10:01:25.564Z,18.70
2023-05-16T10:03:52.979Z,14.85
2023-05-16T10:06:20.974Z,14.18
2023-05-16T10:08:48.731Z,14.05
2023-05-16T10:11:17.593Z,15.25
2023-05-16T10:13:50.504Z,14.27
2023-05-16T10:16:22.194Z,13.63
2023-05-16T10:18:51.069Z,14.63
2023-05-16T10:21:21.933Z,13.98
2023-05-16T10:23:51.884Z,12.93
2023-05-16T10:26:21.611Z,12.20
2023-05-16T10:28:49.487Z,13.80
2023-05-16T10:31:17.442Z,13.18
2023-05-16T10:33:45.101Z,14.38
2023-05-16T10:36:13.205Z,15.75
2023-05-16T10:38:41.488Z,14.38
2023-05-16T10:41:09.596Z,16.55
2023-05-16T10:43:36.937Z,13.73
2023-05-16T10:46:07.497Z,15.13
2023-05-16T10:48:37.120Z,12.40
2023-05-16T10:51:24.919Z,14.85
2023-05-16T10:53:55.512Z,15.75
2023-05-16T10:56:27.543Z,18.10
2023-05-16T10:58:56.180Z,17.60
2023-05-16T11:01:36.775Z,18.25
2023-05-16T11:04:11.722Z,18.80
2023-05-16T11:06:53.726Z,20.52
2023-05-16T11:09:27.646Z,22.50
2023-05-16T11:12:03.644Z,28.75
2023-05-16T11:14:42.470Z,22.63
2023-05-16T11:17:15.117Z,21.48
2023-05-16T11:19:43.948Z,18.30
2023-05-16T11:22:34.569Z,18.27
2023-05-16T11:25:08.885Z,17.98
2023-05-16T11:27:37.118Z,14.55
2023-05-16T11:30:07.425Z,17.85
2023-05-16T11:32:36.068Z,23.10
2023-05-16T11:35:04.350Z,16.50
2023-05-16T11:37:31.594Z,23.48
2023-05-16T11:40:04.448Z,20.33
2023-05-16T11:42:34.867Z,19.98
2023-05-16T11:45:07.357Z,24.58
2023-05-16T11:47:36.509Z,27.85
2023-05-16T11:50:26.607Z,26.35
2023-05-16T11:52:56.384Z,37.22
2023-05-16T11:55:41.673Z,32.15
2023-05-16T11:58:12.347Z,30.17
2023-05-16T12:00:48.590Z,36.20
2023-05-16T12:03:16.180Z,29.20
2023-05-16T12:05:54.588Z,36.95
2023-05-16T12:08:22.430Z,41.45
2023-05-16T12:10:51.804Z,44.00
2023-05-16T12:13:21.562Z,38.63
2023-05-16T12:15:49.401Z,39.35
2023-05-16T12:18:17.416Z,44.42
2023-05-16T12:20:45.298Z,38.33
2023-05-16T12:23:16.664Z,40.42
2023-05-16T12:25:47.945Z,40.13
2023-05-16T12:28:16.414Z,40.05
2023-05-16T12:30:46.332Z,44.13
2023-05-16T12:33:15.776Z,41.75
2023-05-16T12:35:45.384Z,45.63
2023-05-16T12:38:14.581Z,49.00
2023-05-16T12:40:43.682Z,46.20
2023-05-16T12:43:19.628Z,44.55
2023-05-16T12:45:54.957Z,35.08
2023-05-16T12:48:23.134Z,37.28
2023-05-16T12:50:51.131Z,41.95
2023-05-16T12:53:19.215Z,42.85
2023-05-16T12:55:46.706Z,33.67
2023-05-16T12:58:14.135Z,34.78
2023-05-16T13:00:41.452Z,45.17
2023-05-16T13:03:08.779Z,44.33
2023-05-16T13:05:36.661Z,40.08
2023-05-16T13:08:04.427Z,42.60
2023-05-16T13:10:33.394Z,41.13
2023-05-16T13:13:00.609Z,41.58
2023-05-16T13:15:28.231Z,37.45
2023-05-16T13:17:56.075Z,31.35
2023-05-16T13:20:23.836Z,38.22
2023-05-16T13:22:51.206Z,30.65
2023-05-16T13:25:18.500Z,33.33
2023-05-16T13:27:46.531Z,35.75
2023-05-16T13:30:14.016Z,37.45
2023-05-16T13:32:42.018Z,33.00
2023-05-16T13:35:10.480Z,28.63
2023-05-16T13:37:38.046Z,25.13
2023-05-16T13:40:06.034Z,27.33
2023-05-16T13:42:33.506Z,28.27
2023-05-16T13:45:00.599Z,28.20
2023-05-16T13:47:27.832Z,27.80
2023-05-16T13:49:55.040Z,41.03
2023-05-16T13:52:22.190Z,38.92
2023-05-16T13:54:49.462Z,31.38
2023-05-16T13:57:16.811Z,39.33
2023-05-16T14:02:14.189Z,25.40
2023-05-16T14:04:41.653Z,24.70
2023-05-16T14:07:11.212Z,21.92
2023-05-16T14:09:39.700Z,24.92
2023-05-16T14:12:07.952Z,20.92
2023-05-16T14:14:35.954Z,24.60
2023-05-16T14:17:04.380Z,24.33
2023-05-16T14:19:31.943Z,25.58
2023-05-16T14:21:59.262Z,25.23
2023-05-16T14:24:26.806Z,22.08
2023-05-16T14:26:58.533Z,25.55
2023-05-16T14:29:25.882Z,25.70
2023-05-16T14:31:53.760Z,22.30
2023-05-16T14:34:22.546Z,23.58
2023-05-16T14:36:51.119Z,14.50
2023-05-16T14:39:18.502Z,13.77
2023-05-16T14:41:45.923Z,14.93
2023-05-16T14:44:13.156Z,12.57
2023-05-16T14:46:40.418Z,9.18
2023-05-16T14:49:08.231Z,14.40
2023-05-16T14:51:35.911Z,13.85
2023-05-16T14:54:03.144Z,12.70
2023-05-16T14:56:31.004Z,14.63
2023-05-16T14:58:58.529Z,12.70
2023-05-16T15:01:26.091Z,9.60
2023-05-16T15:03:56.738Z,14.10
2023-05-16T15:06:27.733Z,10.18
2023-05-16T15:08:58.723Z,49.30
2023-05-16T15:11:29.613Z,21.17
2023-05-16T15:13:57.500Z,13.65
2023-05-16T15:16:27.387Z,9.25
2023-05-16T15:18:56.583Z,13.85
2023-05-16T15:21:26.826Z,8.50
2023-05-16T15:23:56.852Z,12.52
2023-05-16T15:26:25.004Z,13.25
2023-05-16T15:28:52.399Z,13.25
2023-05-16T15:31:19.621Z,12.05
2023-05-16T15:33:48.561Z,19.52
2023-05-16T15:36:15.972Z,10.48
2023-05-16T15:38:45.820Z,14.98
2023-05-16T15:41:31.444Z,11.07
2023-05-16T15:44:01.132Z,13.52
2023-05-16T15:46:30.485Z,13.15
2023-05-16T15:48:58.007Z,10.93
2023-05-16T15:51:25.378Z,17.05
2023-05-16T15:53:53.424Z,11.00
2023-05-16T15:56:21.810Z,12.02
2023-05-16T15:58:49.004Z,12.85
2023-05-16T16:01:16.761Z,12.48
2023-05-16T16:03:44.032Z,14.82
2023-05-16T16:06:11.576Z,11.15
2023-05-16T16:08:38.844Z,12.63
2023-05-16T16:11:06.139Z,18.10
2023-05-16T16:13:33.358Z,12.05
2023-05-16T16:16:00.850Z,10.68
2023-05-16T16:18:28.206Z,21.02
2023-05-16T16:20:55.646Z,17.95
2023-05-16T16:23:22.934Z,23.08
2023-05-16T16:25:50.586Z,21.67
2023-05-16T16:28:17.816Z,28.67
2023-05-16T16:30:47.490Z,23.25
2023-05-16T16:33:14.823Z,17.10
2023-05-16T16:35:42.134Z,20.70
2023-05-16T16:38:09.632Z,19.63
2023-05-16T16:40:36.872Z,14.18
2023-05-16T16:43:06.521Z,17.02
2023-05-16T16:45:33.844Z,22.85
2023-05-16T16:48:01.337Z,14.02
2023-05-16T16:50:28.612Z,15.02
2023-05-16T16:52:56.205Z,16.10
2023-05-16T16:55:23.348Z,19.13
2023-05-16T16:57:50.789Z,22.08
2023-05-16T17:00:19.307Z,18.92
2023-05-16T17:02:47.030Z,20.25
2023-05-16T17:05:14.364Z,15.98
2023-05-16T17:07:41.589Z,21.80
2023-05-16T17:10:09.475Z,21.92
2023-05-16T17:12:40.835Z,18.45
2023-05-16T17:15:08.637Z,23.48
2023-05-16T17:17:35.929Z,25.35
2023-05-16T17:20:06.732Z,23.38
2023-05-16T17:22:34.058Z,21.98
2023-05-16T17:25:01.390Z,16.88
2023-05-16T17:27:28.516Z,25.73
2023-05-16T17:29:55.710Z,25.83
2023-05-16T17:32:22.948Z,29.73
2023-05-16T17:34:50.465Z,22.65
2023-05-16T17:37:17.909Z,24.45
2023-05-16T17:39:45.409Z,26.70
2023-05-16T17:42:12.704Z,22.35
2023-05-16T17:44:41.427Z,20.75
2023-05-16T17:47:08.697Z,19.83
2023-05-16T17:49:36.314Z,20.35
2023-05-16T17:52:03.555Z,20.60
2023-05-16T17:54:32.337Z,26.02
2023-05-16T17:57:00.639Z,19.75
2023-05-16T17:59:27.902Z,27.60
2023-05-16T18:01:57.593Z,23.73
2023-05-16T18:04:25.689Z,36.97
2023-05-16T18:06:53.109Z,31.55
2023-05-16T18:09:21.122Z,32.22
2023-05-16T18:11:48.569Z,29.98
2023-05-16T18:14:15.826Z,32.40
2023-05-16T18:16:44.108Z,31.35
2023-05-16T18:19:11.887Z,27.63
2023-05-16T18:21:40.113Z,30.08
2023-05-16T18:24:08.811Z,31.38
2023-05-16T18:26:36.946Z,28.90
2023-05-16T18:29:04.313Z,45.17
2023-05-16T18:31:33.750Z,34.47
2023-05-16T18:34:04.070Z,25.23
2023-05-16T18:36:33.016Z,23.48
2023-05-16T18:39:00.377Z,25.77
2023-05-16T18:41:27.728Z,24.13
2023-05-16T18:43:55.053Z,28.60
2023-05-16T18:46:22.173Z,24.38
2023-05-16T18:48:49.464Z,27.20
2023-05-16T18:51:17.047Z,34.65
2023-05-16T18:53:44.334Z,24.63
2023-05-16T18:56:11.569Z,26.38
2023-05-16T18:58:38.949Z,26.38
2023-05-16T19:01:06.114Z,29.00
2023-05-16T19:03:36.484Z,29.33
2023-05-16T19:06:07.297Z,22.85
2023-05-16T19:08:47.071Z,27.20
2023-05-16T19:11:19.595Z,28.05
2023-05-16T19:13:47.341Z,36.35
2023-05-16T19:16:15.119Z,30.08
2023-05-16T19:18:42.486Z,27.20
2023-05-16T19:21:11.167Z,32.78
2023-05-16T19:23:38.264Z,25.13
2023-05-16T19:26:05.544Z,25.98
2023-05-16T19:28:33.476Z,29.67
2023-05-16T19:31:00.974Z,29.80
2023-05-16T19:33:28.245Z,26.73
2023-05-16T19:35:58.707Z,22.23
2023-05-16T19:38:27.836Z,27.65
2023-05-16T19:40:55.156Z,27.50
2023-05-16T19:43:22.511Z,28.40
2023-05-16T19:45:52.868Z,35.58
2023-05-16T19:48:22.931Z,42.15
2023-05-16T19:50:53.801Z,40.03
2023-05-16T19:53:23.487Z,35.60
2023-05-16T19:55:54.042Z,42.75
2023-05-16T19:58:24.073Z,39.75
2023-05-16T20:00:51.671Z,31.38
2023-05-16T20:03:19.530Z,36.70
2023-05-16T20:05:49.455Z,36.72
2023-05-16T20:08:18.581Z,38.55
2023-05-16T20:10:48.558Z,41.72
2023-05-16T20:13:18.641Z,28.73
2023-05-16T20:15:46.457Z,38.95
2023-05-16T20:18:14.142Z,33.70
2023-05-16T20:20:42.538Z,26.67
2023-05-16T20:23:09.976Z,31.95
2023-05-16T20:25:37.620Z,31.95
2023-05-16T20:28:04.908Z,28.75
2023-05-16T20:30:32.749Z,23.30
2023-05-16T20:33:00.388Z,26.13
2023-05-16T20:35:28.061Z,21.83
2023-05-16T20:37:55.496Z,24.75
2023-05-16T20:40:23.309Z,23.98
2023-05-16T20:42:50.438Z,23.40
2023-05-16T20:45:17.680Z,35.00
2023-05-16T20:47:45.128Z,24.55
2023-05-16T20:50:12.375Z,24.63
2023-05-16T20:52:39.703Z,23.27
2023-05-16T20:55:07.376Z,29.13
2023-05-16T20:57:34.530Z,24.58
2023-05-16T21:00:01.812Z,26.88
2023-05-16T21:02:29.059Z,32.97
2023-05-16T21:04:59.223Z,29.08
2023-05-16T21:07:26.953Z,27.63
2023-05-16T21:09:54.713Z,24.25
2023-05-16T21:12:21.825Z,35.00
2023-05-16T21:14:48.924Z,27.15
2023-05-16T21:17:16.185Z,25.25
2023-05-16T21:19:43.461Z,32.33
2023-05-16T21:22:11.420Z,30.48
2023-05-16T21:24:38.633Z,28.25
2023-05-16T21:27:06.054Z,29.58
2023-05-16T21:29:33.310Z,32.78
2023-05-16T21:32:00.593Z,29.27
2023-05-16T21:34:27.884Z,28.33
2023-05-16T21:36:55.055Z,28.30
2023-05-16T21:39:22.304Z,30.48
2023-05-16T21:41:49.524Z,27.92
2023-05-16T21:44:18.628Z,36.42
2023-05-16T21:46:45.818Z,37.30
2023-05-16T21:49:13.217Z,36.97
2023-05-16T21:51:40.520Z,32.05
2023-05-16T21:54:07.743Z,29.08
2023-05-16T21:56:34.901Z,38.05
2023-05-16T21:59:02.053Z,33.20
2023-05-16T22:01:29.679Z,38.63
2023-05-16T22:03:57.937Z,49.30
2023-05-16T22:06:25.540Z,35.58
2023-05-16T22:08:53.401Z,33.13
2023-05-16T22:11:20.740Z,29.48
2023-05-16T22:13:48.118Z,36.13
2023-05-16T22:16:15.643Z,34.53
2023-05-16T22:18:43.054Z,35.75
2023-05-16T22:21:10.346Z,29.63
2023-05-16T22:23:37.921Z,27.83
2023-05-16T22:26:05.279Z,22.73
2023-05-16T22:28:32.572Z,26.70
2023-05-16T22:31:00.026Z,21.65
2023-05-16T22:33:27.330Z,20.58
2023-05-16T22:35:54.885Z,25.20
2023-05-16T22:38:22.057Z,17.70
2023-05-16T22:40:49.264Z,20.25
2023-05-16T22:43:16.545Z,17.70
2023-05-16T22:45:43.693Z,25.85
2023-05-16T22:48:10.971Z,17.52
2023-05-16T22:50:38.321Z,17.08
2023-05-16T22:53:05.425Z,18.17
2023-05-16T22:55:32.892Z,15.02
2023-05-16T22:58:00.835Z,21.70
2023-05-16T23:00:28.046Z,20.13
2023-05-16T23:02:55.325Z,20.38
2023-05-16T23:05:22.515Z,16.88
2023-05-16T23:07:49.812Z,15.32
2023-05-16T23:10:17.109Z,20.40
2023-05-16T23:12:44.379Z,13.63
2023-05-16T23:15:12.020Z,22.15
2023-05-16T23:17:39.455Z,20.35
2023-05-16T23:20:07.547Z,20.58
2023-05-16T23:22:34.778Z,17.88
2023-05-16T23:25:02.223Z,17.55
2023-05-16T23:27:29.413Z,16.00
2023-05-16T23:29:56.543Z,18.83
2023-05-16T23:32:23.860Z,18.02
2023-05-16T23:34:51.116Z,18.10
2023-05-16T23:37:18.361Z,19.08
2023-05-16T23:39:45.557Z,11.48
2023-05-16T23:42:12.947Z,19.90
2023-05-16T23:44:41.993Z,17.48
2023-05-16T23:47:09.580Z,14.68
2023-05-16T23:49:36.779Z,12.40
2023-05-16T23:52:06.072Z,10.55
2023-05-16T23:54:33.826Z,13.55
2023-05-16T23:57:01.460Z,9.68
2023-05-16T23:59:28.660Z,8.38
